Time;durP1;ratioP1;P1;durP2;ratioP2;P2;SDS_P1;SDS_P2;PMS_P1;PMS_P2;Temp;Humidity;BMP_temperature;BMP_pressure;BME280_temperature;BME280_humidity;BME280_pressure;Samples;Min_cycle;Max_cycle;Signal;HPM_P1;HPM_P2
2022/09/26 00:01:11;;;;;;;10.83;9.83;;;14.60;99.90;;;;;;10504575;28;20213;-80
2022/09/26 00:06:14;;;;;;;9.30;8.60;;;14.50;99.90;;;;;;10503621;28;20572;-80
2022/09/26 00:11:20;;;;;;;10.77;9.67;;;14.50;99.90;;;;;;10515589;28;20220;-80
2022/09/26 00:16:23;;;;;;;10.03;9.17;;;14.40;99.90;;;;;;10502344;28;20236;-80
2022/09/26 00:21:26;;;;;;;9.93;8.10;;;14.40;99.90;;;;;;10501396;28;20213;-80
2022/09/26 00:26:32;;;;;;;9.87;9.03;;;14.40;99.90;;;;;;10498438;28;20221;-78
2022/09/26 00:31:35;;;;;;;8.57;7.87;;;14.40;99.90;;;;;;10496866;28;20219;-79
2022/09/26 00:36:38;;;;;;;9.33;8.33;;;14.40;99.90;;;;;;10479078;28;20235;-79
2022/09/26 00:41:41;;;;;;;10.10;9.10;;;14.30;99.90;;;;;;10496522;28;20213;-79
2022/09/26 00:46:47;;;;;;;12.50;9.50;;;14.30;99.90;;;;;;10498638;28;20207;-81
2022/09/26 00:51:55;;;;;;;25.97;15.00;;;14.20;99.90;;;;;;10501060;28;20220;-81
2022/09/26 00:57:03;;;;;;;19.20;14.03;;;14.10;99.90;;;;;;10484498;28;20365;-81
2022/09/26 01:02:05;;;;;;;13.37;11.10;;;14.00;99.90;;;;;;10496782;28;20220;-80
2022/09/26 01:07:13;;;;;;;19.37;11.60;;;13.90;99.90;;;;;;10495416;28;20197;-80
2022/09/26 01:12:18;;;;;;;18.43;11.93;;;13.90;99.90;;;;;;10495529;28;20228;-80
2022/09/26 01:17:21;;;;;;;9.50;8.70;;;13.80;99.90;;;;;;10496230;28;20243;-79
2022/09/26 01:22:43;;;;;;;9.40;8.70;;;13.70;99.90;;;;;;10495299;28;20232;-78
2022/09/26 01:28:10;;;;;;;9.60;8.70;;;13.60;99.90;;;;;;10495857;28;20199;-79
2022/09/26 01:33:45;;;;;;;11.47;10.30;;;13.60;99.90;;;;;;10494697;28;20184;-79
2022/09/26 01:39:00;;;;;;;11.20;10.07;;;13.50;99.90;;;;;;10494723;28;20213;-78
2022/09/26 01:44:14;;;;;;;12.13;10.83;;;13.50;99.90;;;;;;10494689;28;20188;-79
2022/09/26 01:49:23;;;;;;;9.93;9.13;;;13.40;99.90;;;;;;10494025;28;20201;-78
2022/09/26 01:54:31;;;;;;;10.87;9.90;;;13.40;99.90;;;;;;10493583;28;20200;-79
2022/09/26 01:59:38;;;;;;;8.83;7.93;;;13.30;99.90;;;;;;10495570;28;20228;-79
2022/09/26 02:04:45;;;;;;;9.33;8.60;;;13.30;99.90;;;;;;10452741;28;20196;-79
2022/09/26 02:09:51;;;;;;;9.10;8.30;;;13.30;99.90;;;;;;10478509;28;20205;-79
2022/09/26 02:14:57;;;;;;;9.03;8.33;;;13.30;99.90;;;;;;10495880;28;20649;-78
2022/09/26 02:20:05;;;;;;;8.90;8.30;;;13.30;99.90;;;;;;10477029;28;20236;-79
2022/09/26 02:25:09;;;;;;;13.33;8.43;;;13.30;99.90;;;;;;10493563;28;20205;-80
2022/09/26 02:30:13;;;;;;;9.60;8.70;;;13.30;99.90;;;;;;10493525;28;20208;-82
2022/09/26 02:40:47;;;;;;;9.90;9.10;;;13.30;99.90;;;;;;10492998;28;20232;-79
2022/09/26 02:45:55;;;;;;;9.73;8.83;;;13.30;99.90;;;;;;10494197;28;20835;-78
2022/09/26 02:51:15;;;;;;;8.77;7.87;;;13.30;99.90;;;;;;10493817;28;20208;-80
2022/09/26 02:56:26;;;;;;;8.00;7.40;;;13.40;99.90;;;;;;10494003;28;20204;-78
2022/09/26 03:01:39;;;;;;;7.80;7.20;;;13.40;99.90;;;;;;10493372;28;20216;-79
2022/09/26 03:06:46;;;;;;;8.70;7.90;;;13.40;99.90;;;;;;10499421;28;20721;-79
2022/09/26 03:11:49;;;;;;;10.90;8.67;;;13.30;99.90;;;;;;10482897;28;20263;-78
2022/09/26 03:16:52;;;;;;;6.93;6.40;;;13.30;99.90;;;;;;10499377;28;20259;-80
2022/09/26 03:21:57;;;;;;;8.20;7.53;;;13.40;99.90;;;;;;10505200;28;20266;-79
2022/09/26 03:27:03;;;;;;;7.77;7.27;;;13.40;99.90;;;;;;10505179;28;20193;-79
2022/09/26 03:32:06;;;;;;;8.83;7.47;;;13.40;99.90;;;;;;10500563;28;20220;-79
2022/09/26 03:37:11;;;;;;;8.17;7.27;;;13.40;99.90;;;;;;10506138;28;20261;-79
2022/09/26 03:42:15;;;;;;;7.83;7.13;;;13.50;99.90;;;;;;10509783;28;20216;-80
2022/09/26 03:47:19;;;;;;;8.00;7.50;;;13.50;99.90;;;;;;10504034;28;20197;-80
2022/09/26 03:52:27;;;;;;;8.90;8.10;;;13.50;99.90;;;;;;10502536;28;20213;-79
2022/09/26 03:57:29;;;;;;;7.77;7.27;;;13.40;99.90;;;;;;10502589;28;20286;-79
2022/09/26 04:02:38;;;;;;;7.07;6.60;;;13.40;99.90;;;;;;10479098;28;20249;-79
2022/09/26 04:07:55;;;;;;;8.07;7.47;;;13.40;99.90;;;;;;10493760;28;20624;-80
2022/09/26 04:12:57;;;;;;;7.30;6.90;;;13.40;99.90;;;;;;10503925;28;20279;-80
2022/09/26 04:18:00;;;;;;;6.60;6.20;;;13.40;99.90;;;;;;10505051;28;20291;-80
2022/09/26 04:23:04;;;;;;;6.63;6.10;;;13.40;99.90;;;;;;10507357;28;20203;-80
2022/09/26 04:28:07;;;;;;;7.53;7.10;;;13.40;99.90;;;;;;10499488;28;20219;-80
2022/09/26 04:33:11;;;;;;;6.10;5.60;;;13.30;99.90;;;;;;10484434;28;20197;-80
2022/09/26 04:38:32;;;;;;;29.70;20.67;;;13.20;99.90;;;;;;10500347;28;20224;-79
2022/09/26 04:43:37;;;;;;;7.30;6.90;;;13.10;99.90;;;;;;10498733;28;20955;-79
2022/09/26 04:48:41;;;;;;;8.37;7.63;;;13.00;99.90;;;;;;10479885;28;20209;-79
2022/09/26 04:53:53;;;;;;;8.83;8.17;;;13.00;99.90;;;;;;10499465;28;20215;-79
2022/09/26 04:58:59;;;;;;;7.27;6.70;;;13.00;99.90;;;;;;10498289;28;20220;-79
2022/09/26 05:04:09;;;;;;;9.10;8.50;;;13.00;99.90;;;;;;10498558;28;20531;-79
2022/09/26 05:09:13;;;;;;;10.00;9.20;;;12.90;99.90;;;;;;10498749;28;20208;-79
2022/09/26 05:14:35;;;;;;;9.67;8.87;;;12.90;99.90;;;;;;10495980;28;20552;-79
2022/09/26 05:19:38;;;;;;;6.13;5.70;;;12.90;99.90;;;;;;10497809;28;20250;-79
2022/09/26 05:30:20;;;;;;;8.07;7.47;;;12.80;99.90;;;;;;10500041;28;20212;-79
2022/09/26 05:35:22;;;;;;;7.87;7.40;;;12.70;99.90;;;;;;10499313;28;20184;-79
2022/09/26 05:45:48;;;;;;;9.00;7.17;;;12.60;99.90;;;;;;10499423;28;20195;-81
2022/09/26 05:50:53;;;;;;;9.00;8.40;;;12.60;99.90;;;;;;10501088;28;20208;-81
2022/09/26 05:55:57;;;;;;;8.73;7.90;;;12.60;99.90;;;;;;10501513;28;20263;-81
2022/09/26 06:01:11;;;;;;;7.50;6.80;;;12.60;99.90;;;;;;10501827;28;20224;-81
2022/09/26 06:06:16;;;;;;;8.20;7.70;;;12.70;99.90;;;;;;10502007;28;20567;-81
2022/09/26 06:11:26;;;;;;;43.73;33.77;;;12.90;99.90;;;;;;10501900;28;20660;-81
2022/09/26 06:16:29;;;;;;;19.20;17.20;;;13.00;99.90;;;;;;10501939;28;20196;-81
2022/09/26 06:21:31;;;;;;;8.47;7.50;;;13.10;99.90;;;;;;10502971;28;20224;-81
2022/09/26 06:26:46;;;;;;;8.97;8.33;;;13.20;99.90;;;;;;10517738;28;20199;-81
2022/09/26 06:31:49;;;;;;;7.87;7.07;;;13.40;99.90;;;;;;10501207;28;20231;-81
2022/09/26 06:37:00;;;;;;;7.40;6.90;;;13.50;99.90;;;;;;10502592;28;20196;-81
2022/09/26 06:42:06;;;;;;;8.00;7.50;;;13.70;99.90;;;;;;10493015;28;20220;-81
2022/09/26 06:47:26;;;;;;;5.87;5.57;;;13.90;99.90;;;;;;10509640;28;20197;-81
2022/09/26 06:52:43;;;;;;;7.37;6.70;;;14.00;99.90;;;;;;10509325;28;20199;-81
2022/09/26 06:57:47;;;;;;;7.00;6.60;;;14.20;99.90;;;;;;10508291;28;20220;-81
2022/09/26 07:02:51;;;;;;;6.40;6.00;;;14.30;99.90;;;;;;10508883;28;20644;-81
2022/09/26 07:08:12;;;;;;;6.80;6.40;;;14.40;99.90;;;;;;10507362;28;20231;-81
2022/09/26 07:13:16;;;;;;;6.90;6.50;;;14.60;99.90;;;;;;10510274;28;20212;-81
2022/09/26 07:18:19;;;;;;;6.73;6.33;;;14.70;99.90;;;;;;10501419;28;20230;-81
2022/09/26 07:23:36;;;;;;;7.27;6.63;;;14.80;99.90;;;;;;10511014;28;20215;-81
2022/09/26 07:28:39;;;;;;;6.70;6.30;;;14.90;99.90;;;;;;10510224;28;20307;-81
2022/09/26 07:33:42;;;;;;;7.57;7.10;;;15.00;99.90;;;;;;10509160;28;20660;-82
2022/09/26 07:38:49;;;;;;;5.47;4.90;;;15.10;99.90;;;;;;10510291;28;20217;-82
2022/09/26 07:43:55;;;;;;;7.50;7.00;;;15.20;99.90;;;;;;10510439;28;20197;-81
2022/09/26 07:54:34;;;;;;;6.30;5.80;;;15.50;99.90;;;;;;10504819;28;20283;-81
2022/09/26 08:00:01;;;;;;;4.93;4.53;;;15.50;99.90;;;;;;10506719;28;20220;-81
2022/09/26 08:05:26;;;;;;;6.13;5.80;;;15.60;99.90;;;;;;10505754;28;20193;-81
2022/09/26 08:10:33;;;;;;;5.40;4.90;;;15.70;99.90;;;;;;10505131;28;20299;-81
2022/09/26 08:16:04;;;;;;;6.13;5.73;;;15.80;99.90;;;;;;10508986;28;20219;-81
2022/09/26 08:21:09;;;;;;;5.63;5.23;;;15.90;99.90;;;;;;10527490;28;20227;-80
2022/09/26 08:26:11;;;;;;;5.50;5.10;;;16.00;99.90;;;;;;10510851;28;20197;-81
2022/09/26 08:31:21;;;;;;;5.40;5.10;;;16.20;99.90;;;;;;10522822;28;20637;-80
2022/09/26 08:36:23;;;;;;;6.70;6.20;;;16.30;99.90;;;;;;10505847;28;20668;-81
2022/09/26 08:42:00;;;;;;;4.07;3.67;;;16.40;99.90;;;;;;10504181;28;20216;-80
2022/09/26 08:47:30;;;;;;;5.57;5.07;;;16.50;99.90;;;;;;10503709;28;20250;-81
2022/09/26 08:53:02;;;;;;;6.30;5.80;;;16.70;99.90;;;;;;10505853;28;20204;-81
2022/09/26 08:58:15;;;;;;;6.73;6.13;;;16.90;99.90;;;;;;10490339;28;20246;-81
2022/09/26 09:03:29;;;;;;;5.60;5.20;;;17.00;99.90;;;;;;10490947;28;20569;-81
2022/09/26 09:08:37;;;;;;;5.07;4.70;;;17.00;99.90;;;;;;10463356;28;20214;-81
2022/09/26 09:14:18;;;;;;;5.13;4.80;;;16.80;99.90;;;;;;10467192;28;20189;-81
2022/09/26 09:19:52;;;;;;;5.70;5.00;;;16.50;99.90;;;;;;10505365;28;20762;-81
2022/09/26 09:25:18;;;;;;;6.27;5.80;;;16.30;99.90;;;;;;10504121;28;20233;-80
2022/09/26 09:30:23;;;;;;;4.53;4.17;;;16.20;99.90;;;;;;10502074;28;20220;-81
2022/09/26 09:35:38;;;;;;;5.03;4.83;;;16.10;99.90;;;;;;10502512;28;20742;-81
2022/09/26 09:41:23;;;;;;;5.23;4.93;;;16.20;99.90;;;;;;10497708;28;20224;-81
2022/09/26 09:46:28;;;;;;;5.53;5.20;;;16.50;99.90;;;;;;10506962;28;20200;-80
2022/09/26 09:51:44;;;;;;;6.20;5.90;;;16.70;99.90;;;;;;10505913;28;20221;-81
2022/09/26 09:56:58;;;;;;;5.13;4.77;;;16.80;99.90;;;;;;10485865;28;20200;-80
2022/09/26 10:02:16;;;;;;;5.60;5.30;;;16.90;99.10;;;;;;10487196;28;20307;-80
2022/09/26 10:07:20;;;;;;;4.30;4.00;;;17.00;99.60;;;;;;10502912;28;20215;-80
2022/09/26 10:12:43;;;;;;;5.50;5.20;;;17.10;99.90;;;;;;10505496;28;20220;-80
2022/09/26 10:18:06;;;;;;;5.47;5.00;;;17.30;99.90;;;;;;10512444;28;20576;-81
2022/09/26 10:23:23;;;;;;;5.13;4.83;;;17.40;98.30;;;;;;10511941;28;20552;-80
2022/09/26 10:28:32;;;;;;;5.07;4.37;;;17.40;97.50;;;;;;10512201;28;20220;-80
2022/09/26 10:33:37;;;;;;;4.70;4.40;;;17.30;97.00;;;;;;10532426;28;20242;-80
2022/09/26 10:44:23;;;;;;;5.40;5.00;;;17.10;98.00;;;;;;10512536;28;20246;-80
2022/09/26 10:49:45;;;;;;;3.40;3.10;;;17.00;98.70;;;;;;10531012;28;20213;-80
2022/09/26 10:54:56;;;;;;;4.60;4.20;;;17.10;98.40;;;;;;10508111;28;20233;-80
2022/09/26 11:00:00;;;;;;;6.47;4.47;;;17.20;98.90;;;;;;10509586;28;20588;-81
2022/09/26 11:10:49;;;;;;;3.77;3.57;;;17.40;96.50;;;;;;10350270;28;20207;-80
2022/09/26 11:16:09;;;;;;;3.57;3.37;;;17.40;96.40;;;;;;10466223;28;20577;-81
2022/09/26 11:21:21;;;;;;;3.30;3.20;;;17.60;96.80;;;;;;10493341;28;20582;-80
2022/09/26 11:26:34;;;;;;;3.33;3.17;;;17.40;99.30;;;;;;10505248;28;20200;-79
2022/09/26 11:31:42;;;;;;;4.40;4.10;;;17.30;99.70;;;;;;10481484;28;20220;-80
2022/09/26 11:37:31;;;;;;;3.87;3.57;;;17.40;99.90;;;;;;10471329;28;20277;-80
2022/09/26 11:42:53;;;;;;;4.70;3.70;;;17.40;98.60;;;;;;10497692;28;20221;-79
2022/09/26 11:48:17;;;;;;;4.40;4.17;;;17.50;98.10;;;;;;10501343;28;20228;-81
2022/09/26 11:54:10;;;;;;;3.60;3.30;;;17.50;97.10;;;;;;10498409;28;20294;-80
2022/09/26 11:59:41;;;;;;;3.70;3.50;;;17.30;96.90;;;;;;10497387;28;20303;-78
2022/09/26 12:05:03;;;;;;;4.17;3.77;;;17.10;97.60;;;;;;10482381;28;20227;-80
2022/09/26 12:10:18;;;;;;;3.17;3.07;;;17.20;97.00;;;;;;10496653;28;20208;-79
2022/09/26 12:15:26;;;;;;;3.03;2.83;;;17.20;96.80;;;;;;10495272;28;20382;-80
2022/09/26 12:20:37;;;;;;;3.57;2.90;;;17.10;99.70;;;;;;10496844;28;20259;-82
2022/09/26 12:25:54;;;;;;;5.30;5.00;;;16.80;99.90;;;;;;10495433;28;20212;-79
2022/09/26 12:31:10;;;;;;;5.60;5.30;;;16.30;99.90;;;;;;10497476;28;20209;-81
2022/09/26 12:36:22;;;;;;;7.40;6.77;;;16.00;99.90;;;;;;10494819;28;20200;-79
2022/09/26 12:41:38;;;;;;;6.70;6.20;;;15.70;99.90;;;;;;10499009;28;20243;-80
2022/09/26 12:47:12;;;;;;;6.30;5.83;;;15.50;99.90;;;;;;10494769;28;20203;-81
2022/09/26 12:52:26;;;;;;;5.53;5.23;;;15.40;99.90;;;;;;10494556;28;20220;-80
2022/09/26 12:57:38;;;;;;;4.53;4.20;;;15.20;99.90;;;;;;10495753;28;20205;-80
2022/09/26 13:03:12;;;;;;;4.27;4.07;;;15.10;99.90;;;;;;10495918;28;20224;-79
2022/09/26 13:08:21;;;;;;;4.33;4.13;;;15.20;99.90;;;;;;10494113;28;20300;-79
2022/09/26 13:14:04;;;;;;;5.20;4.80;;;15.50;99.90;;;;;;10495442;28;20196;-81
2022/09/26 13:19:19;;;;;;;3.60;3.50;;;15.80;99.90;;;;;;10497182;28;20560;-80
2022/09/26 13:24:25;;;;;;;4.07;3.77;;;16.10;99.90;;;;;;10497035;28;20552;-79
2022/09/26 13:29:32;;;;;;;3.20;3.10;;;16.30;99.90;;;;;;10493295;28;20676;-79
2022/09/26 13:34:39;;;;;;;3.33;3.17;;;16.40;98.90;;;;;;10494608;28;20188;-80
2022/09/26 13:39:49;;;;;;;2.60;2.50;;;16.50;98.10;;;;;;10495624;28;20693;-80
2022/09/26 13:45:07;;;;;;;2.50;2.40;;;16.50;98.30;;;;;;10478986;28;20196;-80
2022/09/26 13:50:22;;;;;;;2.60;2.40;;;16.70;97.80;;;;;;10494680;28;20622;-80
2022/09/26 13:55:25;;;;;;;3.20;3.10;;;16.90;97.90;;;;;;10493622;28;20467;-80
2022/09/26 14:00:53;;;;;;;2.90;2.80;;;16.90;97.80;;;;;;10494540;28;20690;-81
2022/09/26 14:06:22;;;;;;;2.90;2.80;;;16.80;96.50;;;;;;10497312;28;20207;-81
2022/09/26 14:11:29;;;;;;;4.40;2.73;;;16.70;96.80;;;;;;10492927;28;20239;-81
2022/09/26 14:16:35;;;;;;;2.90;2.80;;;16.60;96.90;;;;;;10496161;28;20184;-81
2022/09/26 14:21:41;;;;;;;2.60;2.50;;;16.50;96.20;;;;;;10479730;28;20244;-81
2022/09/26 14:26:44;;;;;;;2.97;2.77;;;16.40;97.10;;;;;;10502680;28;20195;-81
2022/09/26 14:32:00;;;;;;;3.87;3.03;;;16.40;96.30;;;;;;10501577;28;20287;-81
2022/09/26 14:37:17;;;;;;;3.47;3.20;;;16.40;97.10;;;;;;10501139;28;20197;-81
2022/09/26 14:42:23;;;;;;;2.87;2.67;;;16.50;96.70;;;;;;10507856;28;20219;-81
2022/09/26 14:47:28;;;;;;;5.50;5.00;;;16.50;95.80;;;;;;10492100;28;20224;-80
2022/09/26 14:52:34;;;;;;;4.10;3.80;;;16.50;96.80;;;;;;10501220;28;20212;-80
2022/09/26 14:57:37;;;;;;;2.27;2.17;;;16.60;95.40;;;;;;10502184;28;20200;-82
2022/09/26 15:02:41;;;;;;;3.27;3.07;;;16.60;96.30;;;;;;10511961;28;20220;-82
2022/09/26 15:07:46;;;;;;;2.43;2.33;;;16.60;96.00;;;;;;10512839;28;20197;-82
2022/09/26 15:12:55;;;;;;;3.30;3.00;;;16.60;96.70;;;;;;10519881;28;20189;-81
2022/09/26 15:18:07;;;;;;;2.93;2.80;;;16.60;96.70;;;;;;10508500;28;20345;-82
2022/09/26 15:23:22;;;;;;;3.03;2.70;;;16.60;97.30;;;;;;10493649;22;20323;-86
2022/09/26 15:28:25;;;;;;;3.33;3.17;;;16.60;96.00;;;;;;10447605;28;20213;-86
2022/09/26 15:33:27;;;;;;;2.80;2.70;;;16.60;95.60;;;;;;10432471;28;20291;-85
2022/09/26 15:38:31;;;;;;;3.30;3.20;;;16.60;95.10;;;;;;10448043;28;20567;-85
2022/09/26 15:43:35;;;;;;;4.20;3.90;;;16.50;95.10;;;;;;10431260;28;20209;-86
2022/09/26 15:48:43;;;;;;;4.27;3.57;;;16.40;95.40;;;;;;10451687;28;20197;-84
2022/09/26 15:53:52;;;;;;;3.40;3.20;;;16.40;95.10;;;;;;10432821;28;20227;-86
2022/09/26 15:58:59;;;;;;;2.70;2.50;;;16.30;96.10;;;;;;10453073;28;20205;-85
2022/09/26 16:04:04;;;;;;;3.50;3.30;;;16.30;96.40;;;;;;10434315;28;20221;-86
2022/09/26 16:09:16;;;;;;;3.90;3.60;;;16.30;95.10;;;;;;10427753;28;20224;-86
2022/09/26 16:14:25;;;;;;;3.37;3.17;;;16.20;95.50;;;;;;10423448;28;20200;-86
2022/09/26 16:19:33;;;;;;;4.23;3.93;;;16.10;95.80;;;;;;10424439;28;20225;-86
2022/09/26 16:24:37;;;;;;;3.20;3.00;;;16.00;96.00;;;;;;10427500;28;20193;-85
2022/09/26 16:29:41;;;;;;;1.60;1.60;;;16.00;96.70;;;;;;10429871;28;20241;-86
2022/09/26 16:34:44;;;;;;;3.20;3.00;;;15.90;95.60;;;;;;10405459;28;20550;-85
2022/09/26 16:39:58;;;;;;;3.20;3.00;;;15.90;95.80;;;;;;10390032;28;20222;-85
2022/09/26 16:45:04;;;;;;;3.97;3.77;;;15.80;96.70;;;;;;10391758;28;20571;-84
2022/09/26 16:50:26;;;;;;;3.70;3.50;;;15.80;95.70;;;;;;10388129;28;20248;-85
2022/09/26 16:55:35;;;;;;;4.00;3.40;;;15.80;96.20;;;;;;10392847;28;20198;-85
2022/09/26 17:05:58;;;;;;;3.27;2.80;;;15.70;95.90;;;;;;10445644;28;20185;-85
2022/09/26 17:11:04;;;;;;;3.50;3.20;;;15.70;96.50;;;;;;10427990;28;20587;-85
2022/09/26 17:16:07;;;;;;;3.30;3.10;;;15.70;96.20;;;;;;10427111;28;20642;-85
2022/09/26 17:21:10;;;;;;;3.93;3.73;;;15.60;96.90;;;;;;10425518;28;20295;-85
2022/09/26 17:26:20;;;;;;;2.87;2.67;;;15.60;96.90;;;;;;10446733;28;20181;-85
2022/09/26 17:31:22;;;;;;;3.13;3.03;;;15.60;97.20;;;;;;10421195;28;20703;-85
2022/09/26 17:36:26;;;;;;;3.70;3.40;;;15.60;97.50;;;;;;10454176;28;20224;-85
2022/09/26 17:41:31;;;;;;;5.33;4.00;;;15.60;97.50;;;;;;10420987;28;20703;-84
2022/09/26 17:46:37;;;;;;;4.13;2.90;;;15.60;97.40;;;;;;10437986;28;20200;-86
2022/09/26 17:51:39;;;;;;;3.20;2.80;;;15.50;97.50;;;;;;10422904;28;20227;-86
2022/09/26 17:56:43;;;;;;;3.20;3.00;;;15.50;97.60;;;;;;10438852;28;20263;-86
2022/09/26 18:01:53;;;;;;;4.40;4.00;;;15.50;97.10;;;;;;10423649;28;20220;-86
2022/09/26 18:07:00;;;;;;;4.90;3.47;;;15.60;97.30;;;;;;10420080;28;20197;-86
2022/09/26 18:12:06;;;;;;;2.67;2.47;;;15.50;98.00;;;;;;10420173;28;20216;-86
2022/09/26 18:17:14;;;;;;;3.90;3.70;;;15.50;97.90;;;;;;10437518;28;20193;-85
2022/09/26 18:22:22;;;;;;;3.37;3.17;;;15.50;97.40;;;;;;10419472;28;20646;-85
2022/09/26 18:27:26;;;;;;;3.63;3.47;;;15.50;97.60;;;;;;10419652;28;20219;-85
2022/09/26 18:32:32;;;;;;;3.47;3.27;;;15.50;97.40;;;;;;10422861;28;20212;-85
2022/09/26 18:37:34;;;;;;;3.70;3.50;;;15.50;97.40;;;;;;10464819;28;20188;-85
2022/09/26 18:42:38;;;;;;;3.20;3.03;;;15.40;96.80;;;;;;10429124;28;20584;-85
2022/09/26 18:47:43;;;;;;;4.07;3.87;;;15.40;97.60;;;;;;10441814;28;20200;-85
2022/09/26 18:52:46;;;;;;;4.20;3.90;;;15.30;97.50;;;;;;10444672;28;20236;-85
2022/09/26 19:03:15;;;;;;;4.00;3.80;;;15.30;97.70;;;;;;10431690;28;20595;-85
2022/09/26 19:08:33;;;;;;;3.73;3.47;;;15.30;97.70;;;;;;10464078;28;20208;-86
2022/09/26 19:13:36;;;;;;;2.90;2.60;;;15.30;97.60;;;;;;10433136;28;20215;-86
2022/09/26 19:18:40;;;;;;;4.40;4.00;;;15.30;97.70;;;;;;10434860;28;20203;-86
2022/09/26 19:23:42;;;;;;;4.10;3.70;;;15.30;97.60;;;;;;10433010;28;20221;-86
2022/09/26 19:28:46;;;;;;;3.70;3.40;;;15.20;97.90;;;;;;10444846;28;20641;-86
2022/09/26 19:33:50;;;;;;;8.13;7.13;;;15.20;97.70;;;;;;10445846;28;20288;-85
2022/09/26 19:38:52;;;;;;;3.83;3.10;;;15.30;97.70;;;;;;10428438;28;20193;-86
2022/09/26 19:43:56;;;;;;;4.27;3.87;;;15.20;97.80;;;;;;10427684;28;20722;-85
2022/09/26 19:48:59;;;;;;;4.00;3.70;;;15.20;97.20;;;;;;10427744;28;20249;-86
2022/09/26 19:54:02;;;;;;;4.03;3.50;;;15.20;97.00;;;;;;10425313;28;20728;-86
2022/09/26 19:59:05;;;;;;;3.10;2.90;;;15.30;96.80;;;;;;10428411;28;20219;-87
2022/09/26 20:04:13;;;;;;;4.37;3.20;;;15.30;96.30;;;;;;10436793;28;20350;-86
2022/09/26 20:09:18;;;;;;;8.50;7.70;;;15.30;96.50;;;;;;10460548;28;20209;-86
2022/09/26 20:14:24;;;;;;;7.40;6.70;;;15.30;96.30;;;;;;10468561;28;20189;-86
2022/09/26 20:19:34;;;;;;;6.13;3.50;;;15.30;96.10;;;;;;10433285;28;20237;-87
2022/09/26 20:24:38;;;;;;;3.43;2.87;;;15.30;95.80;;;;;;10432642;28;20229;-86
2022/09/26 20:35:01;;;;;;;3.17;2.87;;;15.30;96.20;;;;;;10437637;28;20649;-87
2022/09/26 20:40:10;;;;;;;3.13;3.03;;;15.40;98.00;;;;;;10420279;28;20766;-86
2022/09/26 20:45:17;;;;;;;3.37;3.17;;;15.30;99.10;;;;;;10438899;28;20264;-86
2022/09/26 20:50:20;;;;;;;3.80;3.20;;;15.20;99.90;;;;;;10440382;28;20217;-87
2022/09/26 20:55:22;;;;;;;3.70;3.50;;;15.00;99.90;;;;;;10440195;28;20633;-87
2022/09/26 21:00:26;;;;;;;3.53;3.03;;;14.80;99.90;;;;;;10439424;28;20307;-86
2022/09/26 21:05:28;;;;;;;5.90;3.50;;;14.60;99.90;;;;;;10439729;28;20204;-86
2022/09/26 21:10:32;;;;;;;2.47;2.37;;;14.50;99.90;;;;;;10438357;28;20244;-87
2022/09/26 21:15:38;;;;;;;2.90;2.73;;;14.40;99.90;;;;;;10456950;28;20193;-87
2022/09/26 21:20:40;;;;;;;3.80;3.50;;;14.40;99.90;;;;;;10440037;28;20228;-86
2022/09/26 21:25:59;;;;;;;2.70;2.20;;;14.40;99.90;;;;;;10440208;28;20227;-85
2022/09/26 21:31:05;;;;;;;2.57;2.47;;;14.40;99.90;;;;;;10439614;28;20271;-86
2022/09/26 21:36:08;;;;;;;2.40;2.30;;;14.40;99.70;;;;;;10439909;28;20201;-85
2022/09/26 21:41:12;;;;;;;2.33;2.23;;;14.50;99.50;;;;;;10458329;28;20222;-85
2022/09/26 21:46:16;;;;;;;2.80;2.60;;;14.50;99.70;;;;;;10447877;28;20193;-85
2022/09/26 21:51:20;;;;;;;2.93;2.67;;;14.50;99.90;;;;;;10428009;28;20213;-85
2022/09/26 21:56:26;;;;;;;3.97;3.77;;;14.30;99.90;;;;;;10440075;28;20193;-85
2022/09/26 22:01:32;;;;;;;4.60;4.40;;;13.90;99.90;;;;;;10399259;28;20210;-86
2022/09/26 22:06:34;;;;;;;4.37;4.17;;;13.60;99.90;;;;;;10426376;28;20197;-86
2022/09/26 22:11:38;;;;;;;6.20;6.00;;;13.40;99.90;;;;;;10429124;28;20217;-86
2022/09/26 22:16:41;;;;;;;6.53;6.20;;;13.20;99.90;;;;;;10405145;28;20220;-85
2022/09/26 22:21:43;;;;;;;7.30;6.90;;;12.90;99.90;;;;;;10406058;28;20584;-85
2022/09/26 22:26:46;;;;;;;8.00;7.60;;;12.80;99.90;;;;;;10393314;28;20201;-86
2022/09/26 22:31:49;;;;;;;9.63;9.10;;;12.70;99.90;;;;;;10435941;28;20213;-86
2022/09/26 22:36:51;;;;;;;9.23;8.63;;;12.60;99.90;;;;;;10425657;28;20202;-86
2022/09/26 22:41:54;;;;;;;10.87;10.27;;;12.50;99.90;;;;;;10441146;28;20312;-85
2022/09/26 22:46:57;;;;;;;11.03;10.40;;;12.40;99.90;;;;;;10423902;28;20251;-85
2022/09/26 22:52:00;;;;;;;10.57;9.97;;;12.40;99.90;;;;;;10424166;28;20209;-86
2022/09/26 22:57:02;;;;;;;12.27;11.60;;;12.30;99.90;;;;;;10439805;28;20190;-85
2022/09/26 23:02:05;;;;;;;12.43;11.80;;;12.30;99.90;;;;;;10422681;28;20210;-86
2022/09/26 23:07:08;;;;;;;11.80;11.20;;;12.30;99.90;;;;;;10437333;28;20205;-85
2022/09/26 23:12:10;;;;;;;14.50;13.63;;;12.30;99.90;;;;;;10422417;28;20225;-86
2022/09/26 23:17:14;;;;;;;11.80;11.20;;;12.20;99.90;;;;;;10423976;28;20197;-86
2022/09/26 23:22:16;;;;;;;11.70;11.20;;;12.20;99.90;;;;;;10431460;28;20217;-86
2022/09/26 23:27:19;;;;;;;10.13;9.73;;;12.20;99.90;;;;;;10450902;28;20192;-86
2022/09/26 23:32:22;;;;;;;10.93;10.33;;;12.20;99.90;;;;;;10453129;28;20213;-85
2022/09/26 23:37:24;;;;;;;11.57;10.97;;;12.20;99.90;;;;;;10436511;28;20289;-85
2022/09/26 23:42:27;;;;;;;10.53;10.10;;;12.10;99.90;;;;;;10448274;28;20225;-86
2022/09/26 23:47:30;;;;;;;10.30;9.57;;;12.20;99.90;;;;;;10451593;28;20549;-85
2022/09/26 23:52:32;;;;;;;10.00;9.50;;;12.20;99.90;;;;;;10452993;28;20213;-85
2022/09/26 23:57:35;;;;;;;9.47;9.10;;;12.20;99.90;;;;;;10432851;28;20189;-85
